﻿ProjectID	SampleID	SampleType	TaxonomyID	UniqCodeType	UniqCode	SampleName	ScientificName	CommonName	CollectionYear	CollectionMonth	CollectionDay	SamplingTimeStartEnd	SamplingTimeAMPM	SamplingDuration	WeatherStartEnd	CollectionRegion	CollectionCountry	CollectionArea	CollectionLatitudeFrom	CollectionLatitudeTo	CollectionLongitudeFrom	CollectionLongitudeTo	Sex	TissueOrgan	TissueLipid	TissueMoist	Weight	WeightUnit	Length	LengthUnit	LengthType	GrowthStage	Age	Disease	TemperatureStartEnd	WaterTemperatureStartEnd	pH	DO	EC	EC_temp	Salinity	SS	WaterDepthM	TransparencyM	WaterColor	SedimentTemperatureStartEnd	SedimentDepthM	SedimentAppearance	SedimentColor	SedimentSurfaceColor	SedimentOdor	SedimentImpurities	SedimentMoistureOnSiteAnalysis	IgnitionLossOnSiteAnalysis	SoilDepthM	FlowRate	MeanPM10	MeanTotalSuspendedParticles	HumidityStartEnd	WindDirectionStartEnd	WindSpeedMSStartEnd	AmountOfCollectedAirStartEnd	Remarks	RegisterDate	UpdateDate
PRA000101	SAA007139	ST009	157729			SP-5-O_2017	"Saccostrea mordax"	"Small rock oyster"	2017	8	4					Asia	Japan	"Gusuku, Nago City, Okinawa"	26.58727778		127.9801389			"Whole soft tissues"	2.1																																							2020/6/8	2020/6/8
PRA000101	SAA007140	ST009	157729			SP-7-O_2017	"Saccostrea mordax"	"Small rock oyster"	2017	8	4					Asia	Japan	"Onna Village, Okinawa"	26.50908333		127.8738333			"Whole soft tissues"	2.1																																							2020/6/8	2020/6/8
PRA000101	SAA007141	ST009	157729			SP-8-O_2017	"Saccostrea mordax"	"Small rock oyster"	2017	8	4					Asia	Japan	"Onna Village, Okinawa"	26.44736111		127.8030278			"Whole soft tissues"	1.8																																							2020/6/8	2020/6/8
PRA000101	SAA007142	ST009	157729			SP-9-O_2017	"Saccostrea mordax"	"Small rock oyster"	2017	8	4					Asia	Japan	"Onna Village, Okinawa"	26.438		127.7631667			"Whole soft tissues"	1.9																																							2020/6/8	2020/6/8
PRA000101	SAA007143	ST009	157729			SP-10-O_2017	"Saccostrea mordax"	"Small rock oyster"	2017	8	4					Asia	Japan	"Uruma City, Okinawa"	26.42780556		127.8323333			"Whole soft tissues"	2.5																																							2020/6/8	2020/6/8
PRA000101	SAA007144	ST009	157729			SP-11-O_2017	"Saccostrea mordax"	"Small rock oyster"	2017	8	4					Asia	Japan	"Okinawa City, Okinawa"	26.3235		127.8351111			"Whole soft tissues"	5.1																																							2020/6/8	2020/6/8
PRA000101	SAA007145	ST009	157729			SP-12-O_2017	"Saccostrea mordax"	"Small rock oyster"	2017	8	4					Asia	Japan	"Kadena Town, Okinawa"	26.36238889		127.7468889			"Whole soft tissues"	1.9																																							2020/6/8	2020/6/8
PRA000101	SAA007146	ST009	157729			SP-13-O_2017	"Saccostrea mordax"	"Small rock oyster"	2017	8	4					Asia	Japan	"Chatan Town, Okinawa"	26.32188889		127.755			"Whole soft tissues"	2.1																																							2020/6/8	2020/6/8
PRA000101	SAA007147	ST009	157729			SP-14-O_2017	"Saccostrea mordax"	"Small rock oyster"	2017	8	4					Asia	Japan	"Chatan Town, Okinawa"	26.29711111		127.7576944			"Whole soft tissues"	2.1																																							2020/6/8	2020/6/8
PRA000101	SAA007148	ST009	157729			SP-15-O_2017	"Saccostrea mordax"	"Small rock oyster"	2017	8	4					Asia	Japan	"Urasoe City, Okinawa"	26.27219444		127.7231111			"Whole soft tissues"	1.3																																							2020/6/8	2020/6/8
PRA000101	SAA007149	ST009	157729			SP-16-O_2017	"Saccostrea mordax"	"Small rock oyster"	2017	8	4					Asia	Japan	"Urasoe City, Okinawa"	26.24461111		127.6795			"Whole soft tissues"	1.9																																							2020/6/8	2020/6/8
PRA000101	SAA007150	ST009	157729			SP-17-O_2017	"Saccostrea mordax"	"Small rock oyster"	2017	8	4					Asia	Japan	"Naha City, Okinawa"	26.23080556		127.6803889			"Whole soft tissues"	2.4																																							2020/6/8	2020/6/8
PRA000101	SAA007151	ST009	157729			SP-18-O_2017	"Saccostrea mordax"	"Small rock oyster"	2017	8	4					Asia	Japan	"Naha City, Okinawa"	26.22702778		127.68075			"Whole soft tissues"	1.3																																							2020/6/8	2020/6/8
PRA000101	SAA007152	ST009	157729			SP-19-O_2017	"Saccostrea mordax"	"Small rock oyster"	2017	8	4					Asia	Japan	"Naha City, Okinawa"	26.22719444		127.6808056			"Whole soft tissues"	2.1																																							2020/6/8	2020/6/8
PRA000101	SAA007153	ST009	157729			SP-20-O_2017	"Saccostrea mordax"	"Small rock oyster"	2017	8	4					Asia	Japan	"Naha City, Okinawa"	26.20869444		127.6753889			"Whole soft tissues"	1.8																																							2020/6/8	2020/6/8
PRA000101	SAA007154	ST009	157729			SP-21-O_2017	"Saccostrea mordax"	"Small rock oyster"	2017	8	4					Asia	Japan	"Nanjo City, Okinawa"	26.182		127.7786944			"Whole soft tissues"	2																																							2020/6/8	2020/6/8
PRA000101	SAA007155	ST009	157729			SP-22-O_2017	"Saccostrea mordax"	"Small rock oyster"	2017	8	4					Asia	Japan	"Itoman City, Okinawa"	26.12988889		127.6683056			"Whole soft tissues"	2.2																																							2020/6/8	2020/6/8
PRA000101	SAA007156	ST009	157729			SP-1-O_2018	"Saccostrea mordax"	"Small rock oyster"	2018	5	26					Asia	Japan	"Ginama, Kunigami Village, Okinawa"	26.84938889		128.2525			"Whole soft tissues"	1.2																																							2020/6/8	2020/6/8
PRA000101	SAA007158	ST009	157729			SP-4-O_2018	"Saccostrea mordax"	"Small rock oyster"	2018	5	26					Asia	Japan	"Ada, Kunigami Village, Okinawa"	26.74138889		128.3188056			"Whole soft tissues"	1.5																																							2020/6/8	2020/6/8
PRA000101	SAA007160	ST009	157729			SP-6-O_2018	"Saccostrea mordax"	"Small rock oyster"	2018	5	26					Asia	Japan	"Teima, Nago City, Okinawa"	26.55133333		128.0637222			"Whole soft tissues"	0.53																																							2020/6/8	2020/6/8
PRA000101	SAA007162	ST009	157729			SP-7-O_2018	"Saccostrea mordax"	"Small rock oyster"	2018	5	25					Asia	Japan	"Onna Village, Okinawa"	26.50908333		127.8738333			"Whole soft tissues"	1.4																																							2020/6/8	2020/6/8
PRA000101	SAA007164	ST009	157729			SP-12-O_2018	"Saccostrea mordax"	"Small rock oyster"	2018	5	25					Asia	Japan	"Kadena Town, Okinawa"	26.36238889		127.7468889			"Whole soft tissues"	1.6																																							2020/6/8	2020/6/8
PRA000101	SAA007166	ST009	157729			SP-22-O_2018	"Saccostrea mordax"	"Small rock oyster"	2018	5	25					Asia	Japan	"Kadena Town, Okinawa"	26.12988889		127.6683056			"Whole soft tissues"	1.2																																							2020/6/8	2020/6/8
PRA000101	SAA007168	ST009	157729			SP-2-O_2018	"Saccostrea mordax"	"Small rock oyster"	2018	5	26					Asia	Japan	"Kunigami Village, Okinawa"	26.84980556		128.2533056			"Whole soft tissues"	1.7																																							2020/6/8	2020/6/8
PRA000101	SAA007169	ST009	157729			SP-3-O_2018	"Saccostrea mordax"	"Small rock oyster"	2018	5	26					Asia	Japan	"Hentona, Kunigami Village, Okinawa"	26.74880556		128.1763889			"Whole soft tissues"	0.9																																							2020/6/8	2020/6/8
PRA000101	SAA007170	ST009	157729			SP-1-O_2019	"Saccostrea mordax"	"Small rock oyster"	2019	7	2					Asia	Japan	"Ginama, Kunigami Village, Okinawa"	26.84938889		128.2525			"Whole soft tissues"	2	82																																						2020/6/8	2020/6/8
PRA000101	SAA007174	ST009	157729			SP-20-O_2019	"Saccostrea mordax"	"Small rock oyster"	2019	7	3					Asia	Japan	"Naha City, Okinawa"	26.20869444		127.6753889			"Whole soft tissues"	0.62	90																																						2020/6/8	2020/6/8
PRA000101	SAA007178	ST009	157729			SP-5-O_2019	"Saccostrea mordax"	"Small rock oyster"	2019	7	2					Asia	Japan	"Nago City, Okinawa"	26.58727778		127.9801389			"Whole soft tissues"	1.8	82																																						2020/6/8	2020/6/8
PRA000101	SAA007180	ST009	157729			SP-10-O_2019	"Saccostrea mordax"	"Small rock oyster"	2019	7	2					Asia	Japan	"Uruma City, Okinawa"	26.42780556		127.8323333			"Whole soft tissues"	1.4	86																																						2020/6/8	2020/6/8
PRA000101	SAA007182	ST009	157729			SP-21-O_2019	"Saccostrea mordax"	"Small rock oyster"	2019	7	1					Asia	Japan	"Nanjo City, Okinawa"	26.182		127.7786944			"Whole soft tissues"	1.6	83																																						2020/6/8	2020/6/8
PRA000106	SAA007452	ST033				UI-H1	Air	"Air in an urban house"	2013	3	6			"39 days(Jan. 27_Mar.06)"		Asia	Vietnam	"Linh Dam Urban Area, Hoang Mai, Hanoi City"	20.96311111		105.8321389																																										"Samling: Bedroom of a 9th floor apartment, near window; Average temperature (Jan.-Mar. 2013):20 ℃; "	2020/10/12	2020/10/12
PRA000106	SAA007453	ST033				UI-H2	Air	"Air in an urban house"	2013	2	27			"31 days(Jan. 28_Feb.27)"		Asia	Vietnam	"Co Nhue Urban Area, Bac Tu Liem, Hanoi City"	21.06272222		105.7816389																																										"Sampling spot: Bedroom/living room of a 2nd floor apartment in urban area; Average temperature (Jan.-Mar. 2013):20 ℃"	2020/10/12	2020/10/12
PRA000106	SAA007454	ST033				UI-H3	Air	"Air in an urban house"	2013	2	27			"34 days(Jan. 25_Feb.27)"		Asia	Vietnam	"Van Quan Urban Area, Ha Dong, Hanoi City"	20.96527778		105.7718056																																										"Sampling spot: Living room on 2nd floor of a house in urban area; Average temperature (Jan.-Mar. 2013):20 ℃"	2020/10/12	2020/10/12
PRA000106	SAA007455	ST033				UI-OF	Air	"Air in an urban house"	2013	2	25			"33 days(Jan. 24_Feb.25)"		Asia	Vietnam	"VNU Univ. of Science, Thanh Xuan, Hanoi City"	20.28063889		105.808																																										"Sampling spot: University office on 3rd floor in urban area; Average temperature (Jan.-Mar. 2013):20 ℃"	2020/10/12	2020/10/12
PRA000106	SAA007456	ST029				UO-R	Air	"Air in urban residential area"	2013	2	25			"32 days(Jan. 25_Feb.25)"		Asia	Vietnam	"Le Van Luong Street, Thanh Xuan, Hanoi City"	21.00486111		105.8032222																																										"Sampling spot: Balcony on 4th floor of a house located in residential area with high population density; Average temperature (Jan.-Mar. 2013):20 ℃"	2020/10/12	2020/10/12
PRA000106	SAA007457	ST029				"UO-M "	Air	"Air in urban mixed land-use area"	2015	11	11			"38 days(Sep. 30_Nov.11)"		Asia	Vietnam	"VNU Univ. of Science, Thanh Xuan, Hanoi City"	20.28063889		105.808																																										"Sampling spot: Garden side of 3rd floor located in a mixed land-use area comprising institutional, residential and industrial (tobacco, rubber, soap) uses with high traffic density; Average temperature (Sep.-Nov. 2015):27 ℃"	2020/10/12	2020/10/12
PRA000106	SAA007458	ST029				ELV-0	Air	"Air in rural area"	2015	11	6			"39 days(Sep. 29_Nov.06)"		Asia	Vietnam	"Thuyen Village, Bac Giang City"	21.28063889		106.2333611																																										"Samling spot: Background garden of a rural house, far from ELV processing area; Average temperature (Sep.-Nov. 2015):27 ℃"	2020/10/12	2020/10/12
PRA000106	SAA007459	ST028				ELV-1	Air	"Air in semi-open ELV workshop"	2013	2	26			"48 days(Jan. 10_Feb.26)"		Asia	Vietnam	"Thuyen Village, Bac Giang City"	21.27836667		106.23105																																										"Sampling spot: Background semi-open workshops reinforced by steel frames and corrugated sheets and household backyards with ELV processing activities such as dismantling, metal scrapping, stockpiling vehicular parts, and disposing less valuable materials (e.g. by open burning); Average temperature (Jan.-Mar. 2013):20 ℃"	2020/10/12	2020/10/12
PRA000106	SAA007460	ST028				ELV-2	Air	"Air in semi-open ELV workshop"	2013	2	26			"48 days(Jan. 10_Feb.26)"		Asia	Vietnam	"Thuyen Village, Bac Giang City"	21.27981667		106.23165																																										"Sampling spot: Background semi-open workshops reinforced by steel frames and corrugated sheets and household backyards with ELV processing activities such as dismantling, metal scrapping, stockpiling vehicular parts, and disposing less valuable materials (e.g., by open burning); Average temperature (Jan.-Mar. 2013):20 ℃"	2020/10/12	2020/10/12
PRA000106	SAA007461	ST028				ELV-3	Air	"Air in semi-open ELV workshop"	2013	2	26			"48 days(Jan. 10_Feb.26)"		Asia	Vietnam	"Thuyen Village, Bac Giang City"	21.28038889		106.2339444																																										"Sampling spot: Background semi-open workshops reinforced by steel frames and corrugated sheets and household backyards with ELV processing activities such as dismantling, metal scrapping, stockpiling vehicular parts, and disposing less valuable materials (e.g., by open burning); Average temperature (Jan.-Mar. 2013):20 ℃"	2020/10/12	2020/10/12
PRA000106	SAA007462	ST028				PR	Air	"Air in semi-open plastic recycling facility"	2013	2	26			"49 days(Jan. 09_Feb.26)"		Asia	Vietnam	"Tan Cuong Commune, Thai Nguyen City"	21.53286111		105.7489722																																										"Sampling spot: Semi-open workshop with steel frames and corrugated sheets. Obsolete plastic products were crushed into small pieces by mechanical method and then pressed into a heated extruder for pelletization; Average temperature (Jan.-Mar. 2013):20 ℃"	2020/10/12	2020/10/12
PRA000106	SAA007463	ST028				OR-1	Air	"Air in semi-open oil refining facility"	2013	2	26			"49 days(Jan. 09_Feb.26)"		Asia	Vietnam	"Tan Cuong Commune, Thai Nguyen City"	21.53288889		105.7479167																																										"Sampling spot: Semi-open workshops with steel frames and corrugated sheets. Industrial and vehicular waste oils were collected, classified, and treated by chemical separation to recover original oils or to produce industrial burning oils; Average temperature (Jan.-Mar. 2013):20 ℃"	2020/10/12	2020/10/12
PRA000106	SAA007464	ST028				OR-2	Air	"Air in semi-open oil refining facility"	2013	2	26			"49 days(Jan. 09_Feb.26)"		Asia	Vietnam	"Tan Cuong Commune, Thai Nguyen City"	21.53288889		105.7479167																																										"Sampling spot: Semi-open workshops with steel frames and corrugated sheets. Industrial and vehicular waste oils were collected, classified, and treated by chemical separation to recover original oils or to produce industrial burning oils; Average temperature (Jan.-Mar. 2013):20 ℃"	2020/10/12	2020/10/12
PRA000106	SAA007465	ST028				RM-1	Air	"Air in semi-open rubber melting facility"	2013	2	26			"49 days(Jan. 09_Feb.26)"		Asia	Vietnam	"Tan Cuong Commune, Thai Nguyen City"	21.53216667		105.7494167																																										"Sampling spot: Semi-open workshops with steel frames and corrugated sheets. Rubber tires were pyrolized to recover carbon black and to produce industrial burning oils; Average temperature (Jan.-Mar. 2013):20 ℃"	2020/10/12	2020/10/12
PRA000106	SAA007466	ST028				RM-2	Air	"Air in semi-open rubber melting facility"	2013	2	26			"49 days(Jan. 09_Feb.26)"		Asia	Vietnam	"Tan Cuong Commune, Thai Nguyen City"	21.53216667		105.7494167																																										"Sampling spot: Semi-open workshops with steel frames and corrugated sheets. Rubber tires were pyrolized to recover carbon black and to produce industrial burning oils; Average temperature (Jan.-Mar. 2013):20 ℃"	2020/10/12	2020/10/12
PRA000107	SAA007467	ST031				HN-RD-1	Air	"Road dust (Urban)"	2016	8	10					Asia	Vietnam	"Tran Nhat Duat, Hoan Kiem, Hanoi"	21.03527778	21.03888889	105.8519444	105.8541667																																									"Pooled (n=4); Coodinates: 1_1:N 21.03888889  E 105.8519444; 1_2:N 21.03722222  E 105.8530556; 1_3:N 21.03666667  E 105.8536111; 1_4:N 21.03527778  E 105.8541667; Sampling spot: Residential/Commercial/Motorbikes and car repairing shops; Traffic: Asphalt, High traffic (bus, cars, motorbikes); "	2020/10/26	2020/10/26
PRA000107	SAA007468	ST031				HN-RD-3	Air	"Road dust (Urban)"	2016	8	8					Asia	Vietnam	"Le Thanh Tong (school yard), Hoan Kiem, Hanoi"	21.02083333	21.02416667	105.8575	105.8586111																																									"Pooled (n=4); Coodinates: 3_1:N 21.02416667  E 105.8575; 3_2:N 21.02083333  E 105.8586111; 3_3:N 21.02111111  E 105.8583333; 3_4:N 21.02083333  E 105.8583333; Sampling spot: Universities; Traffic: Concrete, Meium traffic, Car and motorbike park;"	2020/10/26	2020/10/26
PRA000107	SAA007469	ST031				HN-RD-8	Air	"Road dust (Urban)"	2016	9	16					Asia	Vietnam	"Tran Khanh Du, Hai Ba Trung, Hanoi"	21.01916667	21.02555556	105.8597222	105.8619444																																									"Pooled (n=4); Coodinates: 8_1:N 21.02555556  E 105.8597222; 8_2:N 21.02333333  E 105.8608333; 8_3:N 21.02166667  E 105.8613889; 8_4:N 21.01916667  E 105.8619444; Sampling spot: Low residential/Commercial/Constructing; Traffic: High traffic, Car park, Bus station; "	2020/10/26	2020/10/26
PRA000107	SAA007470	ST031				HN-RD-11	Air	"Road dust (Urban)"	2016	9	16					Asia	Vietnam	"Tran Khat Chan, Hai Ba Trung, Hanoi"	21.00861111	21.00916667	105.8533333	105.8561111																																									"Pooled (n=5); Coodinates: 11_1:N 21.00861111  E 105.8533333; 11_2:N 21.00861111  E 105.8536111; 11_3:N 21.00888889  E 105.855; 11_4:N 21.00916667  E 105.8555556; 11_5:N 21.00916667  E 105.8561111; Sampling spot: Residential/Commercial; Traffic: High traffic (bus, cars, motorbikes)/Car park; "	2020/10/26	2020/10/26
PRA000107	SAA007471	ST031				HN-RD-13	Air	"Road dust (Urban)"	2016	8	30					Asia	Vietnam	"Minh Khai, Hai Ba Trung, Hanoi"	20.995	20.99694444	105.8491667	105.8575																																									"Pooled (n=5); Coodinates: 13_1:N 20.99583333  E 105.85; 13_2:N 20.99694444  E 105.8491667; 13_3:N 20.99666667  E 105.8533333; 13_4:N 20.99555556  E 105.8538889; 13_5:N 20.995  E 105.8575; Sampling spot: Commercial/Residential/Schools/Local markets/Wood furniture shops; Traffic: High traffic (bus, cars, motorbikes); "	2020/10/26	2020/10/26
PRA000107	SAA007472	ST031				HN-RD-17	Air	"Road dust (Urban)"	2016	9	14					Asia	Vietnam	"Kim Ma, Ba Dinh, Hanoi"	21.03111111	21.03277778	105.8177778	105.8233333																																									"Pooled (n=5); Coodinates: 17_1:N 21.03166667  E 105.8233333; 17_2:N 21.03277778  E 105.8219444; 17_3:N 21.03111111  E 105.8208333; 17_4:N 21.03111111  E 105.8194444; 17_5:N 21.03111111  E 105.8177778; Sampling spot: Commercial/Residential/Office buildings; Traffic: High traffic (bus, cars, motorbikes); "	2020/10/26	2020/10/26
PRA000107	SAA007473	ST031				HN-RD-20	Air	"Road dust (Urban)"	2016	8	18					Asia	Vietnam	"Ton Duc Thang, Dong Da, Hanoi"	21.01972222	21.02944444	105.8305556	105.8355556																																									"Pooled (n=5); Coodinates: 20_1:N 21.02944444  E 105.8355556; 20_2:N 21.02944444  E 105.835; 20_3:N 21.02805556  E 105.8344444; 20_4:N 21.02138889  E 105.8313889; 20_5:N 21.01972222  E 105.8305556; Sampling spot: Commercial/Residential; Traffic: High traffic (cars, bus, motorbikes); "	2020/10/26	2020/10/26
PRA000107	SAA007474	ST031				HN-RD-22	Air	"Road dust (Urban)"	2016	9	14					Asia	Vietnam	"Nguyen Chi Thanh, Dong Da, Hanoi"	21.02388889	21.02833333	105.8105556	105.8122222																																									"Pooled (n=5); Coodinates: 22_1:N 21.02833333  E 105.8122222; 22_2:N 21.0275  E 105.8119444; 22_3:N 21.02666667  E 105.8116667; 22_4:N 21.02444444  E 105.8108333; 22_5:N 21.02388889  E 105.8105556; Sampling spot: Commercial/Residential; Traffic: High traffic (cars, bus, motorbikes); "	2020/10/26	2020/10/26
PRA000107	SAA007475	ST031				HN-RD-24	Air	"Road dust (Urban)"	2016	8	18					Asia	Vietnam	"Nguyen Luong Bang - Tay Son, Dong Da, Hanoi"	21.02722222	21.03222222	105.825	105.8280556																																									"Pooled (n=5); Coodinates: 24_1:N 21.03222222  E 105.8280556; 24_2:N 21.03083333  E 105.8275; 24_3:N 21.03  E 105.8266667; 24_4:N 21.02805556  E 105.8255556; 24_5:N 21.02722222  E 105.825; Sampling spot: Residential/Commercial/Near universities; Traffic:High traffic(cars, bus, motorbikes)"	2020/10/26	2020/10/26
PRA000107	SAA007476	ST031				HN-RD-26	Air	"Road dust (Urban)"	2016	9	16					Asia	Vietnam	"Giai Phong, Dong Da, Hanoi"	21.00194444	21.00472222	105.8413889	105.8413889																																									"Pooled (n=5); Coodinates: 26_1:N 21.00444444  E 105.8411111; 26_2:N 21.00472222  E 105.8413889; 26_3:N 21.00305556  E 105.8413889; 26_4:N 21.00194444  E 105.8413889; 26_5:N 21.00222222  E 105.8413889; Sampling spot: Residential/Commercial; Traffic:High traffic (bus, cars, motorbikes)/Giap Bat bus station; "	2020/10/26	2020/10/26
PRA000107	SAA007477	ST031				HN-RD-29	Air	"Road dust (Urban)"	2016	9	17					Asia	Vietnam	"Cau Giay, Cau Giay, Hanoi"	21.03333333	21.03694444	105.7894444	105.7922222																																									"Pooled (n=5); Coodinates: 29_1:N 21.03333333  E 105.7905556; 29_2:N 21.03361111  E 105.7894444; 29_3:N 21.03583333  E 105.7913889; 29_4:N 21.03611111  E 105.7919444; 29_5:N 21.03694444  E 105.7922222; Sampling spot: Residential/Commercial/Constructing; Traffic: High traffic (cars, bus, motorbikes); "	2020/10/26	2020/10/26
PRA000107	SAA007478	ST031				HN-RD-30	Air	"Road dust (Urban)"	2016	9	17					Asia	Vietnam	"Pham Van Dong, Cau Giay, Hanoi"	21.04722222	21.05111111	105.7811111	105.7816667																																									"Pooled (n=5); Coodinates: 30_1:N 21.04722222  E 105.7811111; 30_2:N 21.04805556  E 105.7813889; 30_3:N 21.04777778  E 105.7813889; 30_4:N 21.04972222  E 105.7816667; 30_5:N 21.05111111  E 105.7816667; Sampling spot: Residential/Commercial/Constructing; Traffic:High traffic (trucks, cars, motorbikes); "	2020/10/26	2020/10/26
PRA000107	SAA007479	ST031				HN-RD-33	Air	"Road dust (Urban)"	2016	9	17					Asia	Vietnam	"Pham Hung, Cau Giay, Hanoi"	21.03222222	21.03361111	105.7777778	105.78																																									"Pooled (n=5); Coodinates: 33_1:N 21.03361111  E 105.78; 33_2:N 21.03333333  E 105.7777778; 33_3:N 21.03361111  E 105.7780556; 33_4:N 21.03305556  E 105.7777778; 33_5:N 21.03222222  E 105.7797222; Sampling spot: Low residential/Highrise buildings; Traffic: High traffic (bus, cars, motorbikes);  My Dinh bus station; "	2020/10/26	2020/10/26
PRA000107	SAA007480	ST031				HN-RD-34	Air	"Road dust (Urban)"	2016	9	5					Asia	Vietnam	"Tran Duy Hung, Cau Giay, Hanoi"	21.01111111	21.0125	105.8	105.8016667																																									"Pooled (n=5); Coodinates: 34_1:N 21.01111111  E 105.8; 34_2:N 21.01138889  E 105.8002778; 34_3:N 21.0125  E 105.8016667; 34_4:N 21.01222222  E 105.8013889; 34_5:N 21.01166667  E 105.8008333; Sampling spot: Commercial/Residential; Traffic: High traffic (bus, cars, motorbikes); "	2020/10/26	2020/10/26
PRA000107	SAA007481	ST031				HN-RD-37	Air	"Road dust (Urban)"	2016	8	18					Asia	Vietnam	"Nguyen Trai (road), Thanh Xuan, Hanoi"	20.99694444	20.99972222	105.8111111	105.8152778																																									"Pooled (n=5); Coodinates: 37_1:N 20.99972222  E 105.8152778; 37_2:N 20.99861111  E 105.8130556; 37_3:N 20.99833333  E 105.8133333; 37_4:N 20.99722222  E 105.8113889; 37_5:N 20.99694444  E 105.8111111; Sampling spot: Residential/Commercial/Constructing; Traffic: High traffic (cars, bus, motorbikes); "	2020/10/26	2020/10/26
PRA000107	SAA007482	ST031				HN-RD-51	Air	"Road dust (Urban)"	2016	9	17					Asia	Vietnam	"Nguyen Van Cu, Long Bien, Hanoi"	21.04194444	21.04555556	105.8686111	105.8752778																																									"Pooled (n=5); Coodinates: 51_1:N 21.04222222  E 105.8705556; 51_2:N 21.04194444  E 105.8686111; 51_3:N 21.04305556  E 105.8688889; 51_4:N 21.04416667  E 105.8752778; 51_5:N 21.04555556  E 105.875; Sampling spot: Residential/Commercial; Traffic: High traffic (bus, cars, motorbikes); "	2020/10/26	2020/10/26
PRA000107	SAA007483	ST031				TN-RD-1	Air	"Road dust (Industrial zone)"	2016	9	7					Asia	Vietnam	"Cach Mang Thang 10, Thang Loi Ward, Song Cong City, Thai Nguyen province"	21.47583333	21.47638889	105.8311111	105.8319444																																									"Pooled (n=4); Coodinates: 1_1:N 21.47583333  E 105.8311111; 1_2:N 21.47611111  E 105.8313889; 1_3:N 21.47638889  E 105.8316667; 1_4:N 21.47638889  E 105.8319444; Sampling spot: Residential/Industrial (Song Cong I Industrial Park); Traffic: Asphalt (Main road);  Medium traffic (trucks, cars and motorbikes); "	2020/10/26	2020/10/26
PRA000107	SAA007484	ST031				TN-RD-2	Air	"Road dust (Industrial zone)"	2016	9	7					Asia	Vietnam	"Cach Mang Thang 10, Luong Chau Ward, Song Cong City, Thai Nguyen province"	21.47555556	21.47583333	105.8294444	105.8302778																																									"Pooled (n=4); Coodinates: 2_1:N 21.47583333  E 105.8302778; 2_2:N 21.47555556  E 105.83; 2_3:N 21.47555556  E 105.8297222; 2_4:N 21.47555556  E 105.8294444; Sampling spot: Residential/Industrial; Traffic: Medium traffic; "	2020/10/26	2020/10/26
PRA000107	SAA007485	ST031				TN-RD-3	Air	"Road dust (Industrial zone)"	2016	9	7					Asia	Vietnam	"3 Thang 2, Mo Che Ward, Song Cong City, Thai Nguyen province"	21.47388889	21.47388889	105.8277778	105.8283333																																									"Pooled (n=3); Coodinates: 3_1:N 21.47388889  E 105.8277778; 3_2:N 21.47388889  E 105.8280556; 3_3:N 21.47388889  E 105.8283333; Sampling spot: Residential/Industrial; Traffic: Medium traffic; "	2020/10/26	2020/10/26
PRA000107	SAA007486	ST031				TN-RD-4	Air	"Road dust (Industrial zone)"	2016	9	7					Asia	Vietnam	"3 Thang 2, Mo Che Ward, Song Cong City, Thai Nguyen province"	21.47	21.47	105.8277778	105.8280556																																									"Pooled (n=2); Coodinates: 4_1:N 21.47  E 105.8277778; 4_2:N 21.47  E 105.8280556; Sampling spot: Residential/Industrial; Traffic: Medium traffic; "	2020/10/26	2020/10/26
PRA000107	SAA007487	ST031				TN-RD-5	Air	"Road dust (Industrial zone)"	2016	9	7					Asia	Vietnam	"Cach Mang Thang 8, Thang Loi Ward, Song Cong City, Thai Nguyen province"	21.47138889	21.47166667	105.8425	105.8427778																																									"Pooled (n=2); Coodinates: 5_1:N 21.47166667  E 105.8425; 5_2:N 21.47138889  E 105.8427778; Sampling spot: Residential/Industrial; Traffic: Medium traffic; "	2020/10/26	2020/10/26
PRA000107	SAA007488	ST031				TN-RD-6	Air	"Road dust (Industrial zone)"	2016	9	7					Asia	Vietnam	"Cach Mang Thang 10, Bach Quang Ward, Song Cong City, Thai Nguyen province"	21.48222222		105.855																																										"Sampling spot: Residential/Industrial; Traffic: Medium traffic; "	2020/10/26	2020/10/26
PRA000107	SAA007489	ST031				TN-RD-7	Air	"Road dust (Industrial zone)"	2016	9	7					Asia	Vietnam	"Cach Mang Thang 10, Bach Quang Ward, Song Cong City, Thai Nguyen province"	21.48305556		105.8591667																																										"Sampling spot: Residential/Industrial; Traffic: Medium traffic; "	2020/10/26	2020/10/26
PRA000107	SAA007490	ST031				TN-RD-8	Air	"Road dust (Industrial zone)"	2016	9	7					Asia	Vietnam	"Cach Mang Thang 10, Bach Quang Ward, Song Cong City, Thai Nguyen province"	21.48166667	21.48222222	105.8663889	105.8663889																																									"Pooled (n=3); Coodinates: 8_1:N 21.48166667  E 105.8663889; 8_2:N 21.48194444  E 105.8663889; 8_3:N 21.48222222  E 105.8663889; Sampling spot: Residential/Industrial; Traffic: Medium traffic; "	2020/10/26	2020/10/26
PRA000107	SAA007491	ST031				TN-RD-9	Air	"Road dust (Industrial zone)"	2016	9	16					Asia	Vietnam	"Cach Mang Thang 10, Bach Quang Ward, Song Cong City, Thai Nguyen province"	21.48111111		105.8719444																																										"Sampling spot: Residential/Industrial; Traffic: Medium traffic; "	2020/10/26	2020/10/26
PRA000107	SAA007492	ST031				TN-RD-10	Air	"Road dust (Industrial zone)"	2016	9	16					Asia	Vietnam	"Cach Mang Thang 10, Bach Quang Ward, Song Cong City, Thai Nguyen province"	21.48166667		105.8697222																																										"Sampling spot: Residential/Industrial; Traffic: Medium traffic; "	2020/10/26	2020/10/26
PRA000107	SAA007493	ST031				BG-RD-1	Air	"Road dust (Rural)"	2016	8	10					Asia	Vietnam	"Way to rice fields, Mai Dinh Commune, Hiep Hoa District, Bac Giang province"	21.23611111	21.2375	105.9402778	105.9416667																																									"Pooled (n=5); Coodinates: 1_1:N 21.2375  E 105.9416667; 1_2:N 21.23722222  E 105.9413889; 1_3:N 21.23666667  E 105.9408333; 1_4:N 21.23638889  E 105.9408333; 1_5:N 21.23611111  E 105.9402778; Sampling spot: Agricultural/Residential; Traffic: Concrete, Low traffic (motorbikes); "	2020/10/26	2020/10/26
PRA000107	SAA007494	ST031				BG-RD-2	Air	"Road dust (Rural)"	2016	8	19					Asia	Vietnam	"Way to rice fields, Mai Dinh Commune, Hiep Hoa District, Bac Giang province"	21.24027778	21.24083333	105.9408333	105.9427778																																									"Pooled (n=5); Coodinates: 2_1:N 21.24083333  E 105.9427778; 2_2:N 21.24055556  E 105.9422222; 2_3:N 21.24055556  E 105.9416667; 2_4:N 21.24055556  E 105.9413889; 2_5:N 21.24027778  E 105.9408333; Sampling spot: Agricultural/Residential; Traffic: Concrete, Low traffic (motorbikes); "	2020/10/26	2020/10/26
PRA000107	SAA007495	ST031				BG-RD-3	Air	"Road dust (Rural)"	2016	8	19					Asia	Vietnam	"Way on rice fields, Mai Dinh Commune, Hiep Hoa District, Bac Giang province"	21.23583333	21.23694444	105.9444444	105.945																																									"Pooled (n=5); Coodinates: 3_1:N 21.23611111  E 105.945; 3_2:N 21.23583333  E 105.9447222; 3_3:N 21.23638889  E 105.9447222; 3_4:N 21.23666667  E 105.9444444; 3_5:N 21.23694444  E 105.9444444; Sampling spot: Residential, far from rice fields; Traffic: Concrete, Medium traffic (motorbikes);  "	2020/10/26	2020/10/26
PRA000107	SAA007496	ST031				BG-RD-5	Air	"Road dust (Rural)"	2016	8	27					Asia	Vietnam	"Way on rice fields, Mai Dinh Commune, Hiep Hoa District, Bac Giang province"	21.23722222	21.23944444	105.9386111	105.9405556																																									"Pooled (n=5); Coodinates: 5_1:N 21.23777778  E 105.9402778; 5_2:N 21.23722222  E 105.9405556; 5_3:N 21.23861111  E 105.9394444; 5_4:N 21.23888889  E 105.9391667; 5_5:N 21.23944444  E 105.9386111; Sampling spot: Agricultural; Traffic: Land, Low traffic; "	2020/10/26	2020/10/26
PRA000107	SAA007497	ST031				BG-RD-6	Air	"Road dust (Rural)"	2016	8	27					Asia	Vietnam	"Way on rice fields, Mai Dinh Commune, Hiep Hoa District, Bac Giang province"	21.23444444	21.235	105.9552778	105.9580556																																									"Pooled (n=5); Coodinates: 6_1:N 21.23444444  E 105.9561111; 6_2:N 21.23444444  E 105.9552778; 6_3:N 21.23444444  E 105.9569444; 6_4:N 21.23444444  E 105.9577778; 6_5:N 21.235  E 105.9580556; Sampling spot: Agricultural; Traffic: Land, Low traffic; "	2020/10/26	2020/10/26
PRA000111	SAA007595	ST004	103596	es-BANK	EW00086	820106-13	"Peponocephala electra"	"Melon-headed whale"	1982	1						Asia	Japan	"Aoshima, Miyazaki"	31.45	32.73333333	131.9163889	132.5502778	Male	Blubber	58		144.2	kg	236	cm	"Body length"	Immature	"12.5 y.o."																														"This sample is out of the same speciman as SAA002113."	2021/1/4	2021/1/4
PRA000111	SAA007596	ST004	103596	es-BANK	EW00089	820106-16	"Peponocephala electra"	"Melon-headed whale"	1982	1						Asia	Japan	"Aoshima, Miyazaki"	31.45	32.73333333	131.9163889	132.5502778	Male	Blubber	58		211.7	kg	258	cm	"Body length"	Mature																															"This sample is out of the same speciman as SAA002109."	2021/1/4	2021/1/4
PRA000111	SAA007597	ST004	103596	es-BANK	EW00090	820106-17	"Peponocephala electra"	"Melon-headed whale"	1982	1						Asia	Japan	"Aoshima, Miyazaki"	31.45	32.73333333	131.9163889	132.5502778	Male	Blubber	69		198.4	kg	251	cm	"Body length"	Mature	"37.5 y.o."																														"This sample is out of the same speciman as SAA002110."	2021/1/4	2021/1/4
PRA000111	SAA007598	ST004	103596	es-BANK	EW00091	820106-18	"Peponocephala electra"	"Melon-headed whale"	1982	1						Asia	Japan	"Aoshima, Miyazaki"	31.45	32.73333333	131.9163889	132.5502778	Male	Blubber	62		175.6	kg	247.5	cm	"Body length"	Mature	"24.5 y.o."																														"This sample is out of the same speciman as SAA002111."	2021/1/4	2021/1/4
PRA000111	SAA007599	ST004	103596	es-BANK	EW00093	820106-20	"Peponocephala electra"	"Melon-headed whale"	1982	1						Asia	Japan	"Aoshima, Miyazaki"	31.45	32.73333333	131.9163889	132.5502778	Male	Blubber	63		196.5	kg	247	cm	"Body length"	Mature	"41.5 y.o."																														"This sample is out of the same speciman as SAA002112."	2021/1/4	2021/1/4
PRA000111	SAA007600	ST004	103596	es-BANK	EW00113	M32623	"Peponocephala electra"	"Melon-headed whale"	2001	2	12					Asia	Japan	"Hasaki, Ibaraki"	35.73184444	35.82913333	140.7697722	140.8939278	Male	Blubber	70				270	cm	"Body length"	Mature																															"This sample is out of the same speciman as SAA002119."	2021/1/4	2021/1/4
PRA000111	SAA007601	ST004	103596	es-BANK	EW00121	M32632	"Peponocephala electra"	"Melon-headed whale"	2001	2	14					Asia	Japan	"Hasaki, Ibaraki"	35.73184444	35.82913333	140.7697722	140.8939278	Male	Blubber	67				249	cm	"Body length"	Mature																															"This sample is out of the same speciman as SAA002123."	2021/1/4	2021/1/4
PRA000111	SAA007602	ST004	103596	es-BANK	EW00124	M32654	"Peponocephala electra"	"Melon-headed whale"	2001	3	12					Asia	Japan	"Tanegashima, Kagoshima"	30.28055556	30.89444444	130.8252778	131.2708333	Male	Blubber	99				245.5	cm	"Body length"	Mature																															"This sample is out of the same speciman as SAA002124."	2021/1/4	2021/1/4
PRA000111	SAA007603	ST004	103596	es-BANK	EW00125	M32655	"Peponocephala electra"	"Melon-headed whale"	2001	3	12					Asia	Japan	"Tanegashima, Kagoshima"	30.28055556	30.89444444	130.8252778	131.2708333	Male	Blubber	85				253	cm	"Body length"	Mature																															"This sample is out of the same speciman as SAA002122."	2021/1/4	2021/1/4
PRA000111	SAA007604	ST004	103596	es-BANK	EW00127	M32677	"Peponocephala electra"	"Melon-headed whale"	2001	3	12					Asia	Japan	"Tanegashima, Kagoshima"	30.28055556	30.89444444	130.8252778	131.2708333	Male	Blubber	83				261	cm	"Body length"	Mature																															"This sample is out of the same speciman as SAA002120."	2021/1/4	2021/1/4
PRA000111	SAA007605	ST004	103596	es-BANK	EW00134	M32774	"Peponocephala electra"	"Melon-headed whale"	2002	2	25					Asia	Japan	"Hasaki, Ibaraki"	35.73184444	35.82913333	140.7697722	140.8939278	Male	Blubber	44				243	cm	"Body length"	Mature	"15.5 y.o."																														"This sample is out of the same speciman as SAA002125."	2021/1/4	2021/1/4
PRA000111	SAA007606	ST004	103596	es-BANK	EW04669	M32785	"Peponocephala electra"	"Melon-headed whale"	2002	2	25					Asia	Japan	"Hasaki, Ibaraki"	35.73184444	35.82913333	140.7697722	140.8939278	Male	Blubber	69				243	cm	"Body length"	Mature	"16.5 y.o."																														"This sample is out of the same speciman as SAA002126."	2021/1/4	2021/1/4
PRA000111	SAA007607	ST004	103596	es-BANK	EW04676	M32798	"Peponocephala electra"	"Melon-headed whale"	2002	2	25					Asia	Japan	"Hasaki, Ibaraki"	35.73184444	35.82913333	140.7697722	140.8939278	Male	Blubber	43				234	cm	"Body length"	Immature	"10.5 y.o."																														"This sample is out of the same speciman as SAA002127."	2021/1/4	2021/1/4
PRA000111	SAA007608	ST004	103596	es-BANK	EW04690	M32818	"Peponocephala electra"	"Melon-headed whale"	2002	2	25					Asia	Japan	"Hasaki, Ibaraki"	35.73184444	35.82913333	140.7697722	140.8939278	Male	Blubber	40				255	cm	"Body length"	Immature	"11.5 y.o."																														"This sample is out of the same speciman as SAA002121."	2021/1/4	2021/1/4
PRA000111	SAA007609	ST004	103596	es-BANK	EW04766	M34072	"Peponocephala electra"	"Melon-headed whale"	2006	1	23					Asia	Japan	"Asahi, Chiba"	35.70111111		140.7113889		Male	Blubber	66		224.05	kg	249	cm	"Body length"	Mature																															"This sample is out of the same speciman as SAA002157."	2021/1/4	2021/1/4
PRA000111	SAA007610	ST004	103596	es-BANK	EW04764	M34076	"Peponocephala electra"	"Melon-headed whale"	2006	1	23					Asia	Japan	"Asahi, Chiba"	35.70111111		140.7113889		Male	Blubber	49		229.05	kg	255.6	cm	"Body length"	Mature																															"This sample is out of the same speciman as SAA002155."	2021/1/4	2021/1/4
PRA000111	SAA007611	ST004	103596	es-BANK	EW04762	M34077	"Peponocephala electra"	"Melon-headed whale"	2006	1	23					Asia	Japan	"Asahi, Chiba"	35.70111111		140.7113889		Male	Blubber	51		137.5	kg	234	cm	"Body length"	Mature																															"This sample is out of the same speciman as SAA002156."	2021/1/4	2021/1/4
PRA000111	SAA007612	ST004	103596	es-BANK	EW04779	M34085	"Peponocephala electra"	"Melon-headed whale"	2006	2	28					Asia	Japan	"Torami coast, Torami, Ichinomiya, Chiba"	35.33	35.35972222	140.3919417	140.3979167	Male	Blubber	28				260	cm	"Body length"	Mature																															"This sample is out of the same speciman as SAA002159."	2021/1/4	2021/1/4
PRA000111	SAA007613	ST004	103596	es-BANK	EW04772	M34090	"Peponocephala electra"	"Melon-headed whale"	2006	2	28					Asia	Japan	"Torami coast, Torami, Ichinomiya, Chiba"	35.33	35.35972222	140.3919417	140.3979167	Male	Blubber	35				239	cm	"Body length"	Mature																															"This sample is out of the same speciman as SAA002158."	2021/1/4	2021/1/4
PRA000111	SAA007614	ST004	103596	es-BANK	EW04925	M34095	"Peponocephala electra"	"Melon-headed whale"	2006	2	28					Asia	Japan	"Torami coast, Torami, Ichinomiya, Chiba"	35.33	35.35972222	140.3919417	140.3979167	Male	Blubber	45				238	cm	"Body length"	Mature																																2021/1/4	2021/1/4
PRA000111	SAA007615	ST004	103596	es-BANK	EW04926	M34099	"Peponocephala electra"	"Melon-headed whale"	2006	2	28					Asia	Japan	"Torami coast, Torami, Ichinomiya, Chiba"	35.33	35.35972222	140.3919417	140.3979167	Male	Blubber	64				243	cm	"Body length"	Mature																																2021/1/4	2021/1/4
PRA000111	SAA007616	ST004	103596	es-BANK	EW05312	010104-10	"Peponocephala electra"	"Melon-headed whale"	2010	3	10					Asia	Japan	"Yakutsu Nagahama coast, Sakai, Nakatane town, Kumage-gun, Kagoshima"	30.49722222		130.8997222		Male	Blubber	62				237	cm	"Body length"																																	2021/1/4	2021/1/4
PRA000111	SAA007617	ST004	103596	es-BANK	EW05313	010104-11	"Peponocephala electra"	"Melon-headed whale"	2010	3	10					Asia	Japan	"Yakutsu Nagahama coast, Sakai, Nakatane town, Kumage-gun, Kagoshima"	30.49722222		130.8997222		Male	Blubber	66				250	cm	"Body length"																																	2021/1/4	2021/1/4
PRA000111	SAA007618	ST004	103596	es-BANK	EW05314	010104-33	"Peponocephala electra"	"Melon-headed whale"	2010	3	10					Asia	Japan	"Yakutsu Nagahama coast, Sakai, Nakatane town, Kumage-gun, Kagoshima"	30.49722222		130.8997222		Male	Blubber	79				247	cm	"Body length"																																	2021/1/4	2021/1/4
PRA000111	SAA007619	ST004	103596	es-BANK	EW05195	110306-01	"Peponocephala electra"	"Melon-headed whale"	2011	3	6					Asia	Japan	"Oritsu coast, Kashima city, Ibaraki"	35.98201389		140.6644722		Male	Blubber	41				262	cm	"Body length"	Mature																																2021/1/4	2021/1/4
PRA000111	SAA007620	ST004	103596	es-BANK	EW05201	110306-07	"Peponocephala electra"	"Melon-headed whale"	2011	3	6					Asia	Japan	"Oritsu coast, Kashima city, Ibaraki"	35.98201389		140.6644722		Male	Blubber	41				267.5	cm	"Body length"	Mature																																2021/1/4	2021/1/4
PRA000111	SAA007621	ST004	103596	es-BANK	EW05202	110306-08	"Peponocephala electra"	"Melon-headed whale"	2011	3	6					Asia	Japan	"Oritsu coast, Kashima city, Ibaraki"	35.98201389		140.6644722		Male	Blubber	45				256.3	cm	"Body length"	Mature																																2021/1/4	2021/1/4
PRA000111	SAA007622	ST004	103596	es-BANK	EW05179	110306-17	"Peponocephala electra"	"Melon-headed whale"	2011	3	6					Asia	Japan	"Oritsu coast, Kashima city, Ibaraki"	35.98201389		140.6644722		Male	Blubber	61		232.4	kg	259.7	cm	"Body length"	Mature																																2021/1/4	2021/1/4
PRA000111	SAA007623	ST004	103596	es-BANK	EW05183	110306-21	"Peponocephala electra"	"Melon-headed whale"	2011	3	6					Asia	Japan	"Oritsu coast, Kashima city, Ibaraki"	35.98201389		140.6644722		Male	Blubber	53		238	kg	261.8	cm	"Body length"	Mature																																2021/1/4	2021/1/4
PRA000111	SAA007624	ST004	103596	es-BANK	EW05189	110306-27	"Peponocephala electra"	"Melon-headed whale"	2011	3	6					Asia	Japan	"Oritsu coast, Kashima city, Ibaraki"	35.98201389		140.6644722		Male	Blubber	56		249.8	kg	270	cm	"Body length"	Mature																																2021/1/4	2021/1/4
PRA000111	SAA007625	ST004	103596	es-BANK	EW05184	110306-22	"Peponocephala electra"	"Melon-headed whale"	2011	3	6					Asia	Japan	"Oritsu coast, Kashima city, Ibaraki"	35.98201389		140.6644722		Male	Blubber	73		178	kg	263	cm	"Body length"	Mature																																2021/1/4	2021/1/4
PRA000111	SAA007626	ST004	103596	es-BANK	EW05714	Hokota-02	"Peponocephala electra"	"Melon-headed whale"	2015	4	11					Asia	Japan	"Kyochigma coast, Kamizawa, Hokota city, Ibaraki"	36.095289	36.098629	140.603402	140.605157	Male	Blubber	53				254.7	cm	"Body length"																																	2021/1/4	2021/1/4
PRA000111	SAA007627	ST004	103596	es-BANK	EW05717	Hokota-05	"Peponocephala electra"	"Melon-headed whale"	2015	4	11					Asia	Japan	"Kyochigma coast, Kamizawa, Hokota city, Ibaraki"	36.095289	36.098629	140.603402	140.605157	Male	Blubber	52				244	cm	"Body length"																																	2021/1/4	2021/1/4
PRA000111	SAA007628	ST004	103596	es-BANK	EW05725	Hokota-15	"Peponocephala electra"	"Melon-headed whale"	2015	4	11					Asia	Japan	"Kyochigma coast, Kamizawa, Hokota city, Ibaraki"	36.095289	36.098629	140.603402	140.605157	Male	Blubber	48		195.4	kg	255.3	cm	"Body length"																																	2021/1/4	2021/1/4
PRA000111	SAA007629	ST004	103596	es-BANK	EW05726	Hokota-16	"Peponocephala electra"	"Melon-headed whale"	2015	4	11					Asia	Japan	"Kyochigma coast, Kamizawa, Hokota city, Ibaraki"	36.095289	36.098629	140.603402	140.605157	Male	Blubber	49				252	cm	"Body length"																																	2021/1/4	2021/1/4
PRA000111	SAA007630	ST004	103596	es-BANK	EW05727	Hokota-17	"Peponocephala electra"	"Melon-headed whale"	2015	4	11					Asia	Japan	"Kyochigma coast, Kamizawa, Hokota city, Ibaraki"	36.095289	36.098629	140.603402	140.605157	Male	Blubber	62				253	cm	"Body length"																																	2021/1/4	2021/1/4
PRA000111	SAA007631	ST004	103596	es-BANK	EW05736	Hokota-26	"Peponocephala electra"	"Melon-headed whale"	2015	4	11					Asia	Japan	"Kyochigma coast, Kamizawa, Hokota city, Ibaraki"	36.095289	36.098629	140.603402	140.605157	Male	Blubber	50				255	cm	"Body length"																																	2021/1/4	2021/1/4
PRA000111	SAA007632	ST004	103596	es-BANK	EW05741	Hokota-31	"Peponocephala electra"	"Melon-headed whale"	2015	4	11					Asia	Japan	"Kyochigma coast, Kamizawa, Hokota city, Ibaraki"	36.095289	36.098629	140.603402	140.605157	Male	Blubber	53		184.5	kg	252.5	cm	"Body length"																																	2021/1/4	2021/1/4
PRA000121	SAA008817	ST035				WR-1F	Air	"Floor dust"	2019	9						Asia	Vietnam	"Bui Dau Village, Hung Yen Province"	20.93361111		106.0947222																																										"This dust sample mainly contained soil, sand, biological fragments and debris from recycling activities; Homogenized by passing through 250 μm sieves and stored at -20℃ until analysis; E-recyling area (Main activities: Manual dismantling, pastic shredding, storing; Working area characteristics: Steel frame, corrugated wall/roof, concrete floor; Input materials: E-waste (TV, radio, DVD player, Printed circuit board[PCB]), consumer products, automotive plastic parts; Output products: Plastic pellets, metals)"	2022/8/8	2022/8/8
PRA000121	SAA008818	ST035				WR-1E	Air	"Dust on end-of-life equipment surface"	2019	9						Asia	Vietnam	"Bui Dau Village, Hung Yen Province"	20.93361111		106.0947222																																										"This dust sample mainly contained soil, sand, biological fragments and debris from recycling activities; Homogenized by passing through 250 μm sieves and stored at -20℃ until analysis; E-recyling area (Main activities: Manual dismantling, pastic shredding, storing; Working area characteristics: Steel frame, corrugated wall/roof, concrete floor; Input materials: E-waste (TV, radio, DVD player, Printed circuit board[PCB]), consumer products, automotive plastic parts; Output products: Plastic pellets, metals)"	2022/8/8	2022/8/8
PRA000121	SAA008819	ST035				WR-2F	Air	"Floor dust"	2019	9						Asia	Vietnam	"Bui Dau Village, Hung Yen Province"	20.93444444		106.0936111																																										"This dust sample mainly contained soil, sand, biological fragments and debris from recycling activities; Homogenized by passing through 250 μm sieves and stored at -20℃ until analysis; E-recyling area (Main activities: Manual dismantling, pastic shredding, acid leaching, storing; Working area characteristics: Steel frame, brick wall, corrugated roof, concrete floor; Input materials: E-waste (home appliance), consumer products; Output products: Plastic pellets, metals)"	2022/8/8	2022/8/8
PRA000121	SAA008820	ST035				WR-3F	Air	"Floor dust"	2019	9						Asia	Vietnam	"Bui Dau Village, Hung Yen Province"	20.93444444		106.0919444																																										"This dust sample mainly contained soil, sand, biological fragments and debris from recycling activities; Homogenized by passing through 250 μm sieves and stored at -20℃ until analysis; E-recyling area (Main activities: Manual dismantling, storing; Working area characteristics: Steel frame, brick wall/floor, corrugated roof; Input materials: E-waste (CRT TV, DVD player, printer, PCB, water pump, electric generator); Output products: Metals)"	2022/8/8	2022/8/8
PRA000121	SAA008821	ST035				WR-4F	Air	"Floor dust"	2019	9						Asia	Vietnam	"Bui Dau Village, Hung Yen Province"	20.93222222		106.0983333																																										"This dust sample mainly contained soil, sand, biological fragments and debris from recycling activities; Homogenized by passing through 250 μm sieves and stored at -20℃ until analysis; E-recyling area (Main activities: Manual dismantling, plastic shredding, storing; Working area characteristics: Steel frame, brick wall, corrugated roof, concrete floor; Input materials: E-waste (CRT TV case, PCB, cable, home appliance), consumer products; Output products: Plastic pellets, metals)"	2022/8/8	2022/8/8
PRA000121	SAA008822	ST035				WR-5F	Air	"Floor dust"	2019	9						Asia	Vietnam	"Bui Dau Village, Hung Yen Province"	20.93305556		106.0986111																																										"This dust sample mainly contained soil, sand, biological fragments and debris from recycling activities; Homogenized by passing through 250 μm sieves and stored at -20℃ until analysis; E-recyling area (Main activities: Manual dismantling, plastic crushing, storing; Working area characteristics: Steel frame, corrugated wall/roof, concrete floor; Input materials: E-waste (TV, refrigerator, home appliance), consumer products; Output products: Plastic pellets)"	2022/8/8	2022/8/8
PRA000121	SAA008823	ST035				WR-5E	Air	"Dust on end-of-life equipment surface"	2019	9						Asia	Vietnam	"Bui Dau Village, Hung Yen Province"	20.93305556		106.0986111																																										"This dust sample mainly contained soil, sand, biological fragments and debris from recycling activities; Homogenized by passing through 250 μm sieves and stored at -20℃ until analysis; E-recyling area (Main activities: Manual dismantling, plastic crushing, storing; Working area characteristics: Steel frame, corrugated wall/roof, concrete floor; Input materials: E-waste (TV, refrigerator, home appliance), consumer products; Output products: Plastic pellets)"	2022/8/8	2022/8/8
PRA000121	SAA008824	ST031				VP-1F	Air	"Floor dust"	2019	9						Asia	Vietnam	"Thuyen Village, Bac Giang Province"	21.14194444		106.0369444																																										"This dust sample mainly contained soil, sand, biological fragments and debris from recycling activities; Homogenized by passing through 250 μm sieves and stored at -20℃ until analysis; ELV processing area (Main activities: Dismantling, storing, open burning; Working area characteristics: Steel frame and floor, corrugated wall/roof, outdoor; Input materials: ELV (Truck, pickup truck, bus); Output products: Vehicle parts, scrap)"	2022/8/8	2022/8/8
PRA000121	SAA008825	ST031				VP-1E	Air	"Dust on end-of-life equipment surface"	2019	9						Asia	Vietnam	"Thuyen Village, Bac Giang Province"	21.14194444		106.0369444																																										"This dust sample mainly contained soil, sand, biological fragments and debris from recycling activities; Homogenized by passing through 250 μm sieves and stored at -20℃ until analysis; ELV processing area (Main activities: Dismantling, storing, open burning; Working area characteristics: Steel frame and floor, corrugated wall/roof, outdoor; Input materials: ELV (Truck, pickup truck, bus); Output products: Vehicle parts, scrap)"	2022/8/8	2022/8/8
PRA000121	SAA008826	ST031				VP-2F	Air	"Floor dust"	2019	9						Asia	Vietnam	"Thuyen Village, Bac Giang Province"	21.28166667		106.2313889																																										"This dust sample mainly contained soil, sand, biological fragments and debris from recycling activities; Homogenized by passing through 250 μm sieves and stored at -20℃ until analysis; ELV processing area (Main activities: Dismantling, storing; Working area characteristics: Steel frame, brick wall, corrugated roof, concrete floor, outdoor; Input materials: ELV (Truck, pickup truck, bus); Output products: Vehicle parts, scrap)"	2022/8/8	2022/8/8
PRA000121	SAA008827	ST031				VP-2E	Air	"Dust on end-of-life equipment surface"	2019	9						Asia	Vietnam	"Thuyen Village, Bac Giang Province"	21.28166667		106.2313889																																										"This dust sample mainly contained soil, sand, biological fragments and debris from recycling activities; Homogenized by passing through 250 μm sieves and stored at -20℃ until analysis; ELV processing area (Main activities: Dismantling, storing; Working area characteristics: Steel frame, brick wall, corrugated roof, concrete floor, outdoor; Input materials: ELV (Truck, pickup truck, bus); Output products: Vehicle parts, scrap)"	2022/8/8	2022/8/8
PRA000121	SAA008828	ST031				VP-3F	Air	"Floor dust"	2019	9						Asia	Vietnam	"Thuyen Village, Bac Giang Province"	21.28055556		106.2316667																																										"This dust sample mainly contained soil, sand, biological fragments and debris from recycling activities; Homogenized by passing through 250 μm sieves and stored at -20℃ until analysis; Used only for HFRs and PCBs analysis and not used for OPEs analysis due to limited sample amount; ELV processing area (Main activities: Dismantling, storing, open burning; Working area characteristics: Steel frame, no wall, tarpaulin cover, soil floor, outdoor; Input materials: ELV (bus); Output products: Vehicle parts, scrap"	2022/8/8	2022/8/8
PRA000121	SAA008829	ST031				VP-3E	Air	"Dust on end-of-life equipment surface"	2019	9						Asia	Vietnam	"Thuyen Village, Bac Giang Province"	21.28055556		106.2316667																																										"This dust sample mainly contained soil, sand, biological fragments and debris from recycling activities; Homogenized by passing through 250 μm sieves and stored at -20℃ until analysis; ELV processing area (Main activities: Dismantling, storing, open burning; Working area characteristics: Steel frame, no wall, tarpaulin cover, soil floor, outdoor; Input materials: ELV (bus); Output products: Vehicle parts, scrap)"	2022/8/8	2022/8/8
PRA000121	SAA008830	ST031				VP-4F	Air	"Floor dust"	2019	9						Asia	Vietnam	"Thuyen Village, Bac Giang Province"	21.2825		106.2311111																																										"This dust sample mainly contained soil, sand, biological fragments and debris from recycling activities; Homogenized by passing through 250 μm sieves and stored at -20℃ until analysis; ELV processing area (Main activities: Repair, maintenance; Working area characteristics: Steel frame, brick wall, corrugated roof, concrete floor, outdoor; Input materials: Truck, dump truck; Output products: No)"	2022/8/8	2022/8/8
PRA000121	SAA008831	ST031				VP-5F	Air	"Floor dust"	2019	9						Asia	Vietnam	"Thuyen Village, Bac Giang Province"	21.28222222		106.2308333																																										"This dust sample mainly contained soil, sand, biological fragments and debris from recycling activities; Homogenized by passing through 250 μm sieves and stored at -20℃ until analysis; ELV processing area (Main activities: Dismantling, storing; Working area characteristics: Steel frame, brick wall, corrugated roof, concrete floor, outdoor; Input materials: ELV(truck, pickup truck, bus, car); Output products: Vehicle parts, scrap)"	2022/8/8	2022/8/8
PRA000121	SAA008832	ST031				VP-5E	Air	"Dust on end-of-life equipment surface"	2019	9						Asia	Vietnam	"Thuyen Village, Bac Giang Province"	21.28222222		106.2308333																																										"This dust sample mainly contained soil, sand, biological fragments and debris from recycling activities; Homogenized by passing through 250 μm sieves and stored at -20℃ until analysis; ELV processing area (Main activities: Dismantling, storing; Working area characteristics: Steel frame, brick wall, corrugated roof, concrete floor, outdoor; Input materials: ELV(truck, pickup truck, bus, car); Output products: Vehicle parts, scrap)"	2022/8/8	2022/8/8
PRA000121	SAA008833	ST031				VP-6F	Air	"Floor dust"	2019	9						Asia	Vietnam	"Thuyen Village, Bac Giang Province"	21.2825		106.2302778																																										"This dust sample mainly contained soil, sand, biological fragments and debris from recycling activities; Homogenized by passing through 250 μm sieves and stored at -20℃ until analysis; ELV processing area (Main activities: Dismantling, storing; Working area characteristics: Steel frame/floor, brick wall, corrugated roof, outdoor; Input materials: ELV(truck, pickup truck, bus); Output products: Vehicle parts, scrap)"	2022/8/8	2022/8/8
PRA000121	SAA008834	ST031				VP-6F	Air	"Dust on end-of-life equipment surface"	2019	9						Asia	Vietnam	"Thuyen Village, Bac Giang Province"	21.2825		106.2302778																																										"This dust sample mainly contained soil, sand, biological fragments and debris from recycling activities; Homogenized by passing through 250 μm sieves and stored at -20℃ until analysis; ELV processing area (Main activities: Dismantling, storing; Working area characteristics: Steel frame/floor, brick wall, corrugated roof, outdoor; Input materials: ELV(truck, pickup truck, bus); Output products: Vehicle parts, scrap)"	2022/8/8	2022/8/8
PRA000127	SAA009950	ST009	29158			HR-1M	"Mytilus galloprovincialis"	"Blue mussel"	2017	11	7					Asia	Japan	"Otake city, Horoshima"	34.24083333		132.2330556			"Whole soft tissues"	0.88																																							2025/02/14	2025/02/14
PRA000127	SAA009951	ST009	29158			HR-2M	"Mytilus galloprovincialis"	"Blue mussel"	2017	11	7					Asia	Japan	"Hatsukaichi city, Horoshima"	34.30638889		132.32			"Whole soft tissues"	0.84																																							2025/02/14	2025/02/14
PRA000127	SAA009952	ST009	29158			HR-3M	"Mytilus galloprovincialis"	"Blue mussel"	2017	11	7					Asia	Japan	"Hatsukaichi city, Horoshima"	34.3575		132.3386111			"Whole soft tissues"	0.64																																							2025/02/14	2025/02/14
PRA000127	SAA009953	ST009	29158			HR-4M	"Mytilus galloprovincialis"	"Blue mussel"	2017	11	7					Asia	Japan	"Etajima city, Horoshima"	34.26666667		132.4088889			"Whole soft tissues"	0.77																																							2025/02/14	2025/02/14
PRA000127	SAA009954	ST009	29158			HR-5M	"Mytilus galloprovincialis"	"Blue mussel"	2017	11	7					Asia	Japan	"Hiroshima city, Horoshima"	34.34305556		132.465			"Whole soft tissues"	1.1																																							2025/02/14	2025/02/14
PRA000127	SAA009955	ST009	29158			EH-1M	"Mytilus galloprovincialis"	"Blue mussel"	2017	10	30					Asia	Japan	"Iyo City, Ehime"	33.75		132.6697222			"Whole soft tissues"	1.6																																							2025/02/14	2025/02/14
PRA000127	SAA009956	ST009	121615			EH-1O	"Crassostrea nippona"	Oyster	2017	10	30					Asia	Japan	"Iyo City, Ehime"	33.75		132.6697222			"Whole soft tissues"	1.6																																							2025/02/14	2025/02/14
PRA000127	SAA009957	ST009	29158			EH-2M	"Mytilus galloprovincialis"	"Blue mussel"	2017	11	8					Asia	Japan	"Matsuyama City, Ehime"	33.8525		132.7077778			"Whole soft tissues"	1.2																																							2025/02/14	2025/02/14
PRA000127	SAA009958	ST009	29158			EH-3M	"Mytilus galloprovincialis"	"Blue mussel"	2017	11	8					Asia	Japan	"Matsuyama City, Ehime"	33.89111111		132.7252778			"Whole soft tissues"	0.66																																							2025/02/14	2025/02/14
PRA000127	SAA009959	ST009	42192			EH-4M	"Mytilus coruscus"	Mussel	2017	11	8					Asia	Japan	"Imabari City, Ehime"	34.09277778		133.0197222			"Whole soft tissues"	0.68																																							2025/02/14	2025/02/14
PRA000127	SAA009960	ST009	42192			EH-5M	"Mytilus coruscus"	Mussel	2017	11	8					Asia	Japan	"Niihama City, Ehime"	33.97277778		133.2977778			"Whole soft tissues"	2.7																																							2025/02/14	2025/02/14
PRA000127	SAA009961	ST009	42192			EH-6M	"Mytilus coruscus"	Mussel	2017	11	8					Asia	Japan	"Shikokuchuo City, Ehime"	34.02444444		133.5805556			"Whole soft tissues"	2.7																																							2025/02/14	2025/02/14
PRA000127	SAA009962	ST009	121615			OK-1O	"Crassostrea nippona"	Oyster	2017	11	30					Asia	Japan	"Kurashiki City, Okayama"	34.52777778		133.6561111			"Whole soft tissues"	1.9																																							2025/02/14	2025/02/14
PRA000127	SAA009963	ST009	121615			OK-2O	"Crassostrea nippona"	Oyster	2017	11	30					Asia	Japan	"Kurashiki City, Okayama"	34.52138889		133.6938889			"Whole soft tissues"	0.38																																							2025/02/14	2025/02/14
PRA000127	SAA009964	ST009	121615			OK-3O	"Crassostrea nippona"	Oyster	2017	11	30					Asia	Japan	"Okayama City, Okayama"	34.60305556		133.9883333			"Whole soft tissues"	1.7																																							2025/02/14	2025/02/14
PRA000127	SAA009965	ST009	42192			KG-1M	"Mytilus coruscus"	Mussel	2017	11	29					Asia	Japan	"Utazu Town, Kagawa"	34.32833333		133.84			"Whole soft tissues"	1.8																																							2025/02/14	2025/02/14
PRA000127	SAA009966	ST009	42192			KG-2M	"Mytilus coruscus"	Mussel	2017	11	29					Asia	Japan	"Sakaide City, Kagawa"	34.37138889		133.8763889			"Whole soft tissues"	1.3																																							2025/02/14	2025/02/14
PRA000127	SAA009967	ST009	121615			KG-2O	"Crassostrea nippona"	Oyster	2017	11	29					Asia	Japan	"Sakaide City, Kagawa"	34.37138889		133.8763889			"Whole soft tissues"	1.3																																							2025/02/14	2025/02/14
PRA000127	SAA009968	ST009	121615			KG-3O	"Crassostrea nippona"	Oyster	2017	11	29					Asia	Japan	"Takamatsu City, Kagawa"	34.34777778		134.0711111			"Whole soft tissues"	0.87																																							2025/02/14	2025/02/14
PRA000127	SAA009969	ST009	29158			HY-1M	"Mytilus galloprovincialis"	"Blue mussel"	2017	11	29					Asia	Japan	"Himeji City, Hyogo"	34.77916667		134.5997222			"Whole soft tissues"	1.4																																							2025/02/14	2025/02/14
PRA000127	SAA009970	ST009	121615			HY-2O	"Crassostrea nippona"	Oyster	2017	11	29					Asia	Japan	"Himeji City, Hyogo"	34.79888889		134.6608333			"Whole soft tissues"	1.1																																							2025/02/14	2025/02/14
PRA000127	SAA009971	ST009	121615			HY-3O	"Crassostrea nippona"	Oyster	2017	11	29					Asia	Japan	"Minamiawaji City, Hyogo"	34.32027778		134.7183333			"Whole soft tissues"	0.65																																							2025/02/14	2025/02/14
PRA000127	SAA009972	ST009	29158			HY-5M	"Mytilus galloprovincialis"	"Blue mussel"	2017	11	30					Asia	Japan	"Kobe City, Hyogo"	34.62277778		135.0638889			"Whole soft tissues"	1.1																																							2025/02/14	2025/02/14
PRA000127	SAA009973	ST009	121615			HY-5O	"Crassostrea nippona"	Oyster	2017	11	30					Asia	Japan	"Kobe City, Hyogo"	34.62277778		135.0638889			"Whole soft tissues"	0.78																																							2025/02/14	2025/02/14
PRA000127	SAA009974	ST009	121615			HY-6O	"Crassostrea nippona"	Oyster	2017	11	29					Asia	Japan	"Kobe City, Hyogo"	34.67833333		135.1861111			"Whole soft tissues"	0.61																																							2025/02/14	2025/02/14
PRA000127	SAA009975	ST009	121615			OS-1O	"Crassostrea nippona"	Oyster	2017	11	30					Asia	Japan	"Osaka City, Osaka"	34.69305556		135.4075			"Whole soft tissues"	0.82																																							2025/02/14	2025/02/14
PRA000127	SAA009976	ST009	1289581			OS-2M	"Xenostrobus securis"	"Small brown mussel"	2017	11	30					Asia	Japan	"Osaka City, Osaka"	34.665		135.4483333			"Whole soft tissues"	0.55																																							2025/02/14	2025/02/14
PRA000127	SAA009977	ST009	121615			OS-3O	"Crassostrea nippona"	Oyster	2019	7	16					Asia	Japan	"Izumisano City, Osaka"	34.42944444		135.3194444			"Whole soft tissues"	0.99																																							2025/02/14	2025/02/14
PRA000127	SAA009978	ST009	121615			OS-4O	"Crassostrea nippona"	Oyster	2019	7	16					Asia	Japan	"Sennan City, Osaka"	34.32166667		135.1294444			"Whole soft tissues"	1.3																																							2025/02/14	2025/02/14
PRA000127	SAA009979	ST009	121615			OS-5O	"Crassostrea nippona"	Oyster	2019	7	17					Asia	Japan	"Osaka City, Osaka"	34.61361111		135.4441667			"Whole soft tissues"	2.4																																							2025/2/14	2025/2/14
